createdAt,value
2022-10-30T00:00:54.643Z,5.08
2022-10-30T00:03:24.267Z,5.09
2022-10-30T00:05:53.058Z,5.03
2022-10-30T00:08:22.927Z,5.03
2022-10-30T00:10:51.379Z,4.95
2022-10-30T00:13:20.477Z,4.92
2022-10-30T00:15:49.787Z,4.97
2022-10-30T00:18:17.889Z,4.96
2022-10-30T00:20:47.802Z,4.96
2022-10-30T00:23:15.716Z,4.97
2022-10-30T00:25:43.639Z,4.99
2022-10-30T00:28:11.545Z,4.97
2022-10-30T00:30:39.723Z,4.95
2022-10-30T00:33:07.615Z,4.99
2022-10-30T00:35:38.677Z,5.05
2022-10-30T00:38:10.741Z,5.05
2022-10-30T00:40:38.636Z,5.03
2022-10-30T00:43:08.568Z,5.00
2022-10-30T00:45:36.613Z,4.84
2022-10-30T00:48:05.733Z,4.73
2022-10-30T00:50:37.363Z,4.65
2022-10-30T00:53:08.490Z,4.64
2022-10-30T00:55:41.337Z,4.60
2022-10-30T00:58:15.050Z,4.59
2022-10-30T01:00:50.342Z,4.60
2022-10-30T01:03:19.213Z,4.56
2022-10-30T01:05:53.578Z,4.47
2022-10-30T01:08:21.804Z,4.44
2022-10-30T01:10:52.051Z,4.37
2022-10-30T01:13:23.740Z,4.27
2022-10-30T01:16:07.541Z,4.27
2022-10-30T01:18:43.705Z,4.27
2022-10-30T01:21:20.630Z,4.21
2022-10-30T01:24:03.492Z,4.14
2022-10-30T01:26:42.941Z,4.13
2022-10-30T01:29:26.684Z,4.16
2022-10-30T01:32:08.941Z,4.14
2022-10-30T01:34:44.393Z,4.16
2022-10-30T01:37:19.866Z,4.19
2022-10-30T01:39:47.878Z,4.25
2022-10-30T01:42:48.562Z,4.22
2022-10-30T01:45:21.513Z,4.20
2022-10-30T01:48:11.125Z,4.22
2022-10-30T01:50:48.983Z,4.21
2022-10-30T01:53:26.162Z,4.17
2022-10-30T01:56:01.539Z,4.11
2022-10-30T01:58:38.110Z,4.03
2022-10-30T02:01:06.406Z,3.97
2022-10-30T02:03:34.310Z,3.93
2022-10-30T02:06:02.932Z,3.90
2022-10-30T02:08:30.991Z,3.88
2022-10-30T02:11:00.145Z,3.87
2022-10-30T02:13:28.325Z,3.90
2022-10-30T02:15:59.923Z,3.86
2022-10-30T02:18:27.828Z,3.84
2022-10-30T02:20:57.174Z,3.77
2022-10-30T02:23:25.311Z,3.75
2022-10-30T02:25:53.173Z,3.79
2022-10-30T02:28:21.440Z,3.77
2022-10-30T02:30:49.442Z,3.78
2022-10-30T02:35:46.118Z,3.78
2022-10-30T02:38:15.374Z,3.83
2022-10-30T02:40:43.280Z,3.80
2022-10-30T02:43:11.129Z,3.80
2022-10-30T02:45:39.013Z,3.81
2022-10-30T02:48:07.338Z,3.85
2022-10-30T02:50:35.317Z,3.91
2022-10-30T02:53:03.202Z,3.94
2022-10-30T02:55:32.457Z,3.87
2022-10-30T02:58:00.441Z,3.82
2022-10-30T03:00:28.416Z,3.79
2022-10-30T03:02:56.916Z,3.79
2022-10-30T03:05:25.527Z,3.73
2022-10-30T03:07:55.434Z,3.69
2022-10-30T03:10:23.510Z,3.65
2022-10-30T03:12:52.903Z,3.65
2022-10-30T03:15:21.403Z,3.63
2022-10-30T03:17:52.594Z,3.60
2022-10-30T03:20:20.839Z,3.55
2022-10-30T03:22:48.712Z,3.57
2022-10-30T03:25:17.664Z,3.60
2022-10-30T03:27:45.739Z,3.52
2022-10-30T03:30:15.069Z,3.51
2022-10-30T03:32:43.102Z,3.52
2022-10-30T03:35:11.005Z,3.52
2022-10-30T03:37:39.039Z,3.51
2022-10-30T03:40:08.172Z,3.50
2022-10-30T03:42:36.056Z,3.54
2022-10-30T03:45:03.963Z,3.56
2022-10-30T03:47:33.241Z,3.51
2022-10-30T03:50:01.083Z,3.46
2022-10-30T03:52:28.924Z,3.43
2022-10-30T03:54:56.799Z,3.45
2022-10-30T03:57:24.852Z,3.42
2022-10-30T03:59:52.877Z,3.37
2022-10-30T04:02:20.924Z,3.35
2022-10-30T04:04:50.330Z,3.33
2022-10-30T04:07:18.170Z,3.29
2022-10-30T04:09:46.365Z,3.26
2022-10-30T04:12:14.240Z,3.22
2022-10-30T04:14:42.100Z,3.20
2022-10-30T04:19:45.479Z,3.13
2022-10-30T04:22:17.813Z,3.11
2022-10-30T04:24:46.079Z,3.07
2022-10-30T04:27:14.270Z,3.01
2022-10-30T04:29:43.172Z,2.98
2022-10-30T04:32:11.799Z,2.89
2022-10-30T04:34:42.062Z,2.87
2022-10-30T04:37:09.757Z,2.72
2022-10-30T04:39:42.352Z,2.73
2022-10-30T04:42:13.483Z,2.74
2022-10-30T04:44:41.370Z,2.74
2022-10-30T04:47:09.224Z,2.74
2022-10-30T04:49:37.418Z,2.69
2022-10-30T04:52:05.338Z,2.70
2022-10-30T04:54:33.231Z,2.69
2022-10-30T04:57:02.457Z,2.71
2022-10-30T04:59:31.489Z,2.77
2022-10-30T05:01:59.467Z,2.76
2022-10-30T05:04:27.399Z,2.75
2022-10-30T05:06:55.287Z,2.72
2022-10-30T05:09:23.161Z,2.76
2022-10-30T05:11:52.983Z,2.77
2022-10-30T05:14:30.271Z,2.76
2022-10-30T05:16:58.547Z,2.74
2022-10-30T05:19:26.809Z,2.76
2022-10-30T05:21:54.698Z,2.70
2022-10-30T05:24:25.356Z,2.71
2022-10-30T05:26:53.233Z,2.75
2022-10-30T05:29:21.057Z,2.77
2022-10-30T05:31:52.484Z,2.79
2022-10-30T05:34:20.378Z,2.86
2022-10-30T05:36:48.284Z,2.91
2022-10-30T05:39:16.180Z,2.90
2022-10-30T05:41:44.038Z,2.87
2022-10-30T05:44:11.897Z,2.91
2022-10-30T05:46:39.761Z,2.97
2022-10-30T05:49:09.247Z,2.97
2022-10-30T05:51:39.732Z,2.98
2022-10-30T05:54:09.712Z,3.03
2022-10-30T05:56:37.586Z,3.11
2022-10-30T05:59:05.477Z,3.11
2022-10-30T06:01:33.431Z,3.12
2022-10-30T06:04:01.484Z,3.11
2022-10-30T06:06:30.687Z,3.08
2022-10-30T06:08:58.729Z,3.08
2022-10-30T06:11:26.597Z,3.08
2022-10-30T06:13:54.481Z,3.06
2022-10-30T06:16:22.492Z,3.08
2022-10-30T06:18:50.495Z,3.07
2022-10-30T06:21:18.341Z,3.07
2022-10-30T06:23:49.675Z,3.02
2022-10-30T06:26:17.550Z,2.98
2022-10-30T06:28:45.461Z,2.94
2022-10-30T06:31:13.465Z,2.95
2022-10-30T06:33:41.703Z,2.97
2022-10-30T06:36:10.181Z,2.96
2022-10-30T06:38:38.027Z,2.98
2022-10-30T06:41:07.427Z,2.96
2022-10-30T06:43:35.900Z,2.96
2022-10-30T06:46:03.989Z,2.96
2022-10-30T06:48:32.459Z,2.98
2022-10-30T06:51:03.207Z,3.00
2022-10-30T06:53:31.160Z,3.04
2022-10-30T06:56:00.265Z,3.10
2022-10-30T06:58:30.306Z,3.15
2022-10-30T07:01:01.030Z,3.19
2022-10-30T07:03:28.901Z,3.21
2022-10-30T07:05:56.769Z,3.20
2022-10-30T07:08:24.699Z,3.25
2022-10-30T07:10:52.648Z,3.29
2022-10-30T07:13:20.702Z,3.30
2022-10-30T07:15:49.954Z,3.36
2022-10-30T07:18:18.205Z,3.40
2022-10-30T07:20:46.094Z,3.46
2022-10-30T07:23:14.030Z,3.46
2022-10-30T07:25:41.925Z,3.47
2022-10-30T07:28:09.806Z,3.52
2022-10-30T07:30:40.177Z,3.54
2022-10-30T07:33:11.618Z,3.59
2022-10-30T07:35:39.526Z,3.63
2022-10-30T07:38:09.166Z,3.66
2022-10-30T07:40:37.261Z,3.66
2022-10-30T07:43:05.871Z,3.72
2022-10-30T07:45:34.863Z,3.77
2022-10-30T07:48:03.263Z,3.81
2022-10-30T07:50:32.973Z,3.80
2022-10-30T07:53:00.829Z,3.84
2022-10-30T07:55:28.716Z,3.87
2022-10-30T07:57:56.951Z,3.90
2022-10-30T08:00:25.140Z,3.91
2022-10-30T08:02:57.423Z,3.94
2022-10-30T08:05:29.065Z,3.99
2022-10-30T08:08:00.206Z,4.05
2022-10-30T08:10:28.573Z,4.09
2022-10-30T08:12:56.541Z,4.15
2022-10-30T08:15:25.073Z,4.21
2022-10-30T08:17:53.564Z,4.27
2022-10-30T08:20:24.174Z,4.32
2022-10-30T08:22:53.358Z,4.37
2022-10-30T08:25:24.357Z,4.42
2022-10-30T08:27:55.058Z,4.45
2022-10-30T08:30:23.686Z,4.56
2022-10-30T08:32:58.432Z,4.63
2022-10-30T08:35:26.600Z,4.68
2022-10-30T08:37:56.718Z,4.75
2022-10-30T08:40:27.224Z,4.82
2022-10-30T08:42:56.672Z,4.85
2022-10-30T08:45:29.876Z,4.92
2022-10-30T08:48:00.810Z,4.96
2022-10-30T08:50:29.204Z,5.03
2022-10-30T08:52:57.393Z,5.11
2022-10-30T08:55:27.000Z,5.19
2022-10-30T08:57:54.847Z,5.22
2022-10-30T09:00:24.871Z,5.25
2022-10-30T09:02:52.851Z,5.32
2022-10-30T09:05:22.220Z,5.45
2022-10-30T09:07:50.237Z,5.48
2022-10-30T09:10:18.221Z,5.52
2022-10-30T09:12:47.558Z,5.57
2022-10-30T09:15:15.470Z,5.65
2022-10-30T09:17:43.524Z,5.70
2022-10-30T09:20:12.237Z,5.73
2022-10-30T09:22:41.845Z,5.84
2022-10-30T09:25:10.656Z,5.87
2022-10-30T09:27:39.219Z,5.91
2022-10-30T09:30:09.955Z,6.03
2022-10-30T09:32:37.806Z,6.05
2022-10-30T09:35:06.460Z,6.07
2022-10-30T09:37:36.075Z,6.12
2022-10-30T09:40:04.763Z,6.16
2022-10-30T09:42:51.779Z,6.29
2022-10-30T09:45:57.335Z,6.34
2022-10-30T09:48:57.210Z,6.46
2022-10-30T09:51:47.018Z,6.51
2022-10-30T09:54:22.697Z,6.56
2022-10-30T09:56:59.518Z,6.63
2022-10-30T09:59:44.922Z,6.77
2022-10-30T10:02:27.472Z,6.85
2022-10-30T10:04:59.486Z,6.91
2022-10-30T10:07:31.342Z,7.03
2022-10-30T10:10:04.786Z,7.06
2022-10-30T10:12:39.198Z,7.14
2022-10-30T10:15:15.723Z,7.19
2022-10-30T10:17:46.815Z,7.24
2022-10-30T10:20:19.170Z,7.23
2022-10-30T10:22:49.780Z,7.27
2022-10-30T10:25:20.543Z,7.29
2022-10-30T10:28:12.638Z,7.32
2022-10-30T10:30:49.051Z,7.32
2022-10-30T10:33:31.539Z,7.37
2022-10-30T10:36:23.334Z,7.43
2022-10-30T10:39:02.534Z,7.51
2022-10-30T10:41:53.441Z,7.56
2022-10-30T10:44:33.942Z,7.55
2022-10-30T10:47:17.496Z,7.55
2022-10-30T10:49:59.393Z,7.62
2022-10-30T10:52:37.649Z,7.55
2022-10-30T10:55:08.428Z,7.59
2022-10-30T10:57:39.455Z,7.64
2022-10-30T11:00:09.582Z,7.61
2022-10-30T11:02:43.206Z,7.63
2022-10-30T11:05:24.085Z,7.62
2022-10-30T11:07:52.873Z,7.67
2022-10-30T11:10:23.867Z,7.70
2022-10-30T11:12:53.248Z,7.66
2022-10-30T11:15:36.469Z,7.62
2022-10-30T11:20:42.250Z,7.66
2022-10-30T11:23:32.747Z,7.75
2022-10-30T11:26:00.550Z,7.71
2022-10-30T11:28:42.711Z,7.76
2022-10-30T11:31:27.621Z,7.74
2022-10-30T11:33:55.697Z,7.74
2022-10-30T11:36:27.971Z,7.75
2022-10-30T11:39:10.142Z,7.77
2022-10-30T11:41:38.269Z,7.81
2022-10-30T11:44:07.662Z,7.82
2022-10-30T11:46:37.859Z,7.82
2022-10-30T11:49:05.730Z,7.84
2022-10-30T11:51:38.704Z,7.80
2022-10-30T11:54:08.803Z,7.79
2022-10-30T11:56:36.798Z,7.85
2022-10-30T11:59:06.603Z,7.92
2022-10-30T12:01:37.340Z,7.92
2022-10-30T12:04:17.149Z,7.90
2022-10-30T12:06:46.751Z,7.90
2022-10-30T12:09:20.750Z,7.91
2022-10-30T12:11:49.532Z,7.92
2022-10-30T12:14:21.149Z,7.94
2022-10-30T12:16:51.296Z,7.91
2022-10-30T12:19:22.211Z,7.90
2022-10-30T12:21:53.551Z,7.90
2022-10-30T12:24:29.494Z,7.90
2022-10-30T12:26:58.630Z,7.96
2022-10-30T12:30:02.751Z,7.96
2022-10-30T12:32:28.017Z,7.98
2022-10-30T12:35:02.848Z,7.99
2022-10-30T12:37:36.126Z,8.00
2022-10-30T12:40:08.949Z,7.99
2022-10-30T12:42:41.583Z,7.97
2022-10-30T12:45:15.990Z,7.95
2022-10-30T12:47:49.733Z,7.94
2022-10-30T12:50:24.170Z,7.99
2022-10-30T12:53:00.891Z,7.98
2022-10-30T12:55:35.800Z,8.00
2022-10-30T12:58:11.913Z,7.98
2022-10-30T13:00:45.080Z,8.00
2022-10-30T13:03:25.611Z,7.97
2022-10-30T13:05:57.009Z,7.95
2022-10-30T13:08:34.288Z,7.94
2022-10-30T13:11:08.797Z,7.94
2022-10-30T13:13:40.788Z,7.93
2022-10-30T13:16:15.273Z,7.95
2022-10-30T13:18:43.198Z,7.94
2022-10-30T13:21:27.342Z,7.95
2022-10-30T13:24:03.209Z,7.92
2022-10-30T13:26:39.528Z,7.90
2022-10-30T13:29:24.538Z,7.90
2022-10-30T13:32:02.905Z,7.90
2022-10-30T13:34:41.263Z,7.90
2022-10-30T13:37:15.730Z,7.90
2022-10-30T13:39:53.931Z,7.82
2022-10-30T13:42:36.358Z,7.78
2022-10-30T13:45:23.245Z,7.81
2022-10-30T13:48:00.867Z,7.72
2022-10-30T13:50:55.446Z,7.72
2022-10-30T13:53:35.222Z,7.71
2022-10-30T13:56:05.560Z,7.71
2022-10-30T13:58:38.099Z,7.62
2022-10-30T14:01:17.350Z,7.59
2022-10-30T14:03:53.591Z,7.52
2022-10-30T14:06:33.750Z,7.47
2022-10-30T14:09:13.727Z,7.40
2022-10-30T14:11:43.206Z,7.39
2022-10-30T14:14:30.159Z,7.32
2022-10-30T14:17:16.102Z,7.25
2022-10-30T14:20:21.042Z,7.20
2022-10-30T14:23:15.757Z,7.19
2022-10-30T14:25:46.340Z,7.16
2022-10-30T14:28:22.759Z,7.10
2022-10-30T14:31:03.420Z,7.07
2022-10-30T14:33:49.050Z,7.02
2022-10-30T14:36:22.887Z,7.01
2022-10-30T14:38:57.190Z,6.97
2022-10-30T14:41:51.822Z,6.90
2022-10-30T14:44:51.634Z,6.86
2022-10-30T14:47:48.262Z,6.81
2022-10-30T14:50:33.706Z,6.76
2022-10-30T14:53:21.236Z,6.71
2022-10-30T14:55:56.930Z,6.67
2022-10-30T14:58:27.248Z,6.60
2022-10-30T15:01:12.859Z,6.48
2022-10-30T15:03:54.642Z,6.52
2022-10-30T15:06:31.608Z,6.50
2022-10-30T15:09:11.475Z,6.45
2022-10-30T15:12:02.739Z,6.43
2022-10-30T15:17:30.043Z,6.33
2022-10-30T15:20:02.680Z,6.31
2022-10-30T15:22:31.710Z,6.29
2022-10-30T15:25:00.006Z,6.25
2022-10-30T15:27:28.343Z,6.23
2022-10-30T15:29:58.818Z,6.22
2022-10-30T15:32:27.149Z,6.16
2022-10-30T15:34:57.232Z,6.07
2022-10-30T15:37:26.513Z,5.98
2022-10-30T15:40:13.741Z,5.94
2022-10-30T15:42:42.188Z,5.91
2022-10-30T15:45:17.189Z,5.89
2022-10-30T15:47:47.791Z,5.83
2022-10-30T15:50:16.942Z,5.75
2022-10-30T15:52:47.227Z,5.67
2022-10-30T15:55:17.210Z,5.39
2022-10-30T15:58:12.879Z,5.39
2022-10-30T16:00:39.600Z,5.41
2022-10-30T16:03:17.144Z,5.29
2022-10-30T16:05:45.351Z,5.21
2022-10-30T16:08:17.908Z,5.22
2022-10-30T16:10:46.710Z,5.17
2022-10-30T16:13:18.877Z,5.09
2022-10-30T16:15:48.166Z,5.07
2022-10-30T16:18:20.327Z,5.07
2022-10-30T16:20:51.185Z,5.01
2022-10-30T16:23:21.296Z,4.96
2022-10-30T16:25:54.298Z,4.90
2022-10-30T16:28:31.858Z,4.85
2022-10-30T16:31:02.884Z,4.81
2022-10-30T16:33:33.252Z,4.81
2022-10-30T16:36:01.198Z,4.70
2022-10-30T16:38:36.879Z,4.75
2022-10-30T16:41:07.100Z,4.71
2022-10-30T16:43:35.965Z,4.64
2022-10-30T16:46:39.112Z,4.54
2022-10-30T16:49:10.330Z,4.52
2022-10-30T16:51:40.222Z,4.52
2022-10-30T16:54:22.486Z,4.45
2022-10-30T16:56:54.062Z,4.35
2022-10-30T16:59:29.180Z,4.36
2022-10-30T17:02:00.769Z,4.35
2022-10-30T17:04:30.357Z,4.33
2022-10-30T17:07:07.983Z,4.33
2022-10-30T17:09:39.447Z,4.28
2022-10-30T17:12:20.953Z,4.17
2022-10-30T17:14:52.070Z,4.13
2022-10-30T17:17:32.280Z,4.16
2022-10-30T17:20:14.749Z,4.13
2022-10-30T17:22:42.720Z,4.04
2022-10-30T17:25:32.101Z,3.98
2022-10-30T17:27:59.996Z,3.97
2022-10-30T17:30:41.221Z,3.93
2022-10-30T17:33:36.206Z,3.86
2022-10-30T17:36:05.334Z,3.84
2022-10-30T17:38:33.375Z,3.81
2022-10-30T17:41:03.629Z,3.80
2022-10-30T17:43:32.393Z,3.67
2022-10-30T17:46:00.460Z,3.74
2022-10-30T17:48:30.123Z,3.66
2022-10-30T17:50:58.047Z,3.69
2022-10-30T17:53:26.820Z,3.70
2022-10-30T17:56:00.847Z,3.71
2022-10-30T17:58:31.013Z,3.68
2022-10-30T18:00:58.860Z,3.53
2022-10-30T18:03:26.760Z,3.57
2022-10-30T18:05:55.326Z,3.56
2022-10-30T18:08:26.083Z,3.56
2022-10-30T18:10:54.207Z,3.54
2022-10-30T18:13:22.085Z,3.53
2022-10-30T18:15:55.290Z,3.52
2022-10-30T18:18:23.163Z,3.51
2022-10-30T18:20:51.150Z,3.50
2022-10-30T18:23:46.773Z,3.44
2022-10-30T18:26:14.867Z,3.41
2022-10-30T18:28:43.060Z,3.42
2022-10-30T18:31:13.654Z,3.39
2022-10-30T18:33:42.405Z,3.42
2022-10-30T18:36:13.257Z,3.41
2022-10-30T18:38:41.169Z,3.38
2022-10-30T18:41:14.683Z,3.41
2022-10-30T18:43:45.701Z,3.40
2022-10-30T18:46:17.221Z,3.41
2022-10-30T18:48:45.525Z,3.41
2022-10-30T18:51:18.108Z,3.37
2022-10-30T18:53:51.815Z,3.36
2022-10-30T18:56:20.514Z,3.28
2022-10-30T18:58:48.583Z,3.23
2022-10-30T19:01:19.093Z,3.21
2022-10-30T19:03:48.108Z,3.13
2022-10-30T19:06:17.741Z,3.06
2022-10-30T19:08:46.205Z,2.99
2022-10-30T19:11:18.711Z,2.99
2022-10-30T19:13:50.093Z,3.03
2022-10-30T19:16:21.145Z,3.05
2022-10-30T19:18:49.913Z,3.06
2022-10-30T19:21:19.098Z,3.07
2022-10-30T19:23:48.223Z,3.04
2022-10-30T19:26:17.592Z,3.02
2022-10-30T19:28:46.493Z,2.96
2022-10-30T19:31:16.819Z,2.92
2022-10-30T19:33:47.549Z,2.93
2022-10-30T19:36:35.673Z,2.90
2022-10-30T19:39:08.913Z,2.86
2022-10-30T19:41:37.518Z,2.85
2022-10-30T19:44:08.461Z,2.86
2022-10-30T19:46:37.439Z,2.86
2022-10-30T19:49:16.291Z,2.83
2022-10-30T19:51:44.313Z,2.77
2022-10-30T19:54:12.352Z,2.73
2022-10-30T19:56:42.346Z,2.77
2022-10-30T19:59:11.274Z,2.83
2022-10-30T20:01:41.582Z,2.87
2022-10-30T20:04:11.086Z,2.84
2022-10-30T20:06:39.103Z,2.79
2022-10-30T20:09:06.970Z,2.79
2022-10-30T20:11:34.832Z,2.76
2022-10-30T20:14:02.765Z,2.70
2022-10-30T20:16:30.615Z,2.72
2022-10-30T20:18:58.466Z,2.66
2022-10-30T20:21:28.776Z,2.72
2022-10-30T20:23:56.605Z,2.74
2022-10-30T20:26:27.759Z,2.74
2022-10-30T20:28:56.069Z,2.77
2022-10-30T20:31:23.993Z,2.80
2022-10-30T20:33:51.863Z,2.81
2022-10-30T20:36:19.772Z,2.92
2022-10-30T20:38:53.141Z,2.97
2022-10-30T20:41:23.241Z,3.04
2022-10-30T20:43:54.264Z,3.08
2022-10-30T20:46:22.523Z,3.12
2022-10-30T20:48:50.401Z,3.16
2022-10-30T20:51:18.284Z,3.19
2022-10-30T20:53:46.290Z,3.22
2022-10-30T20:56:15.577Z,3.28
2022-10-30T20:58:43.760Z,3.30
2022-10-30T21:01:13.685Z,3.31
2022-10-30T21:03:41.719Z,3.32
2022-10-30T21:06:09.923Z,3.35
2022-10-30T21:08:38.063Z,3.35
2022-10-30T21:11:07.488Z,3.36
2022-10-30T21:13:37.868Z,3.39
2022-10-30T21:16:08.425Z,3.42
2022-10-30T21:18:36.751Z,3.45
2022-10-30T21:21:06.444Z,3.44
2022-10-30T21:23:34.379Z,3.46
2022-10-30T21:26:03.121Z,3.49
2022-10-30T21:28:31.411Z,3.58
2022-10-30T21:31:03.432Z,3.62
2022-10-30T21:33:32.321Z,3.64
2022-10-30T21:36:11.682Z,3.72
2022-10-30T21:38:41.548Z,3.73
2022-10-30T21:41:09.778Z,3.75
2022-10-30T21:43:37.687Z,3.79
2022-10-30T21:46:07.855Z,3.85
2022-10-30T21:48:36.319Z,3.87
2022-10-30T21:51:09.013Z,3.92
2022-10-30T21:53:37.547Z,3.94
2022-10-30T21:56:06.994Z,4.03
2022-10-30T21:58:34.887Z,4.07
2022-10-30T22:01:02.888Z,4.14
2022-10-30T22:03:32.738Z,4.23
2022-10-30T22:06:05.826Z,4.30
2022-10-30T22:08:33.741Z,4.37
2022-10-30T22:11:05.659Z,4.43
2022-10-30T22:13:33.707Z,4.48
2022-10-30T22:16:01.625Z,4.54
2022-10-30T22:18:29.619Z,4.59
2022-10-30T22:21:02.754Z,4.65
2022-10-30T22:23:31.552Z,4.68
2022-10-30T22:26:00.906Z,4.74
2022-10-30T22:28:30.410Z,4.78
2022-10-30T22:31:03.261Z,4.86
2022-10-30T22:33:33.900Z,4.90
2022-10-30T22:36:08.974Z,4.97
2022-10-30T22:38:36.978Z,5.00
2022-10-30T22:41:09.465Z,5.05
2022-10-30T22:43:37.387Z,5.11
2022-10-30T22:46:05.484Z,5.18
2022-10-30T22:48:36.509Z,5.27
2022-10-30T22:51:11.809Z,5.32
2022-10-30T22:53:47.259Z,5.41
2022-10-30T22:56:18.079Z,5.47
2022-10-30T22:58:46.744Z,5.51
2022-10-30T23:01:16.656Z,5.56
2022-10-30T23:03:45.316Z,5.61
2022-10-30T23:06:14.772Z,5.66
2022-10-30T23:08:43.371Z,5.73
2022-10-30T23:11:11.847Z,5.78
2022-10-30T23:13:42.432Z,5.82
2022-10-30T23:16:13.742Z,5.84
2022-10-30T23:18:42.323Z,5.85
2022-10-30T23:21:15.754Z,5.84
2022-10-30T23:23:44.727Z,5.82
2022-10-30T23:26:14.621Z,5.82
2022-10-30T23:28:43.154Z,5.82
2022-10-30T23:31:11.745Z,5.82
2022-10-30T23:33:39.835Z,5.81
2022-10-30T23:36:08.625Z,5.77
2022-10-30T23:38:37.885Z,5.75
2022-10-30T23:41:05.745Z,5.75
2022-10-30T23:43:33.581Z,5.70
2022-10-30T23:46:01.454Z,5.67
2022-10-30T23:48:29.287Z,5.67
2022-10-30T23:50:57.390Z,5.65
2022-10-30T23:53:25.299Z,5.58
2022-10-30T23:55:56.034Z,5.57
2022-10-30T23:58:23.879Z,5.57
